sensor_id;sensor_type;location;lat;lon;timestamp;P1;durP1;ratioP1;P2;durP2;ratioP2
59734;SDS011;64362;45.620;4.920;2023-10-08T00:01:14;3.85;;;1.98;;
59734;SDS011;64362;45.620;4.920;2023-10-08T00:03:41;3.30;;;1.52;;
59734;SDS011;64362;45.620;4.920;2023-10-08T00:06:23;3.63;;;1.50;;
59734;SDS011;64362;45.620;4.920;2023-10-08T00:08:49;3.30;;;1.35;;
59734;SDS011;64362;45.620;4.920;2023-10-08T00:11:15;2.90;;;1.60;;
59734;SDS011;64362;45.620;4.920;2023-10-08T00:13:42;2.80;;;1.38;;
59734;SDS011;64362;45.620;4.920;2023-10-08T00:16:12;3.90;;;1.50;;
59734;SDS011;64362;45.620;4.920;2023-10-08T00:18:43;3.90;;;1.90;;
59734;SDS011;64362;45.620;4.920;2023-10-08T00:21:16;3.47;;;1.58;;
59734;SDS011;64362;45.620;4.920;2023-10-08T00:26:26;2.60;;;1.27;;
59734;SDS011;64362;45.620;4.920;2023-10-08T00:28:56;3.35;;;1.58;;
59734;SDS011;64362;45.620;4.920;2023-10-08T00:31:24;3.53;;;1.40;;
59734;SDS011;64362;45.620;4.920;2023-10-08T00:33:55;4.13;;;1.58;;
59734;SDS011;64362;45.620;4.920;2023-10-08T00:36:22;3.22;;;1.40;;
59734;SDS011;64362;45.620;4.920;2023-10-08T00:38:49;4.72;;;1.70;;
59734;SDS011;64362;45.620;4.920;2023-10-08T00:41:25;3.58;;;1.60;;
59734;SDS011;64362;45.620;4.920;2023-10-08T00:43:54;4.38;;;1.50;;
59734;SDS011;64362;45.620;4.920;2023-10-08T00:46:22;3.45;;;1.25;;
59734;SDS011;64362;45.620;4.920;2023-10-08T00:48:53;3.92;;;1.77;;
59734;SDS011;64362;45.620;4.920;2023-10-08T00:51:23;4.97;;;1.80;;
59734;SDS011;64362;45.620;4.920;2023-10-08T00:54:10;3.92;;;1.73;;
59734;SDS011;64362;45.620;4.920;2023-10-08T00:56:42;2.03;;;1.23;;
59734;SDS011;64362;45.620;4.920;2023-10-08T00:59:24;2.95;;;1.38;;
59734;SDS011;64362;45.620;4.920;2023-10-08T01:01:50;3.30;;;1.67;;
59734;SDS011;64362;45.620;4.920;2023-10-08T01:04:20;2.67;;;1.35;;
59734;SDS011;64362;45.620;4.920;2023-10-08T01:06:55;3.40;;;1.55;;
59734;SDS011;64362;45.620;4.920;2023-10-08T01:09:25;4.60;;;1.90;;
59734;SDS011;64362;45.620;4.920;2023-10-08T01:12:09;4.55;;;1.70;;
59734;SDS011;64362;45.620;4.920;2023-10-08T01:15:02;3.30;;;1.52;;
59734;SDS011;64362;45.620;4.920;2023-10-08T01:17:48;2.42;;;1.40;;
59734;SDS011;64362;45.620;4.920;2023-10-08T01:20:25;2.95;;;1.60;;
59734;SDS011;64362;45.620;4.920;2023-10-08T01:23:09;2.90;;;1.50;;
59734;SDS011;64362;45.620;4.920;2023-10-08T01:25:44;3.13;;;1.40;;
59734;SDS011;64362;45.620;4.920;2023-10-08T01:28:16;3.47;;;1.92;;
59734;SDS011;64362;45.620;4.920;2023-10-08T01:30:51;3.10;;;1.30;;
59734;SDS011;64362;45.620;4.920;2023-10-08T01:33:19;3.42;;;1.63;;
59734;SDS011;64362;45.620;4.920;2023-10-08T01:35:47;2.88;;;1.27;;
59734;SDS011;64362;45.620;4.920;2023-10-08T01:38:15;4.28;;;1.63;;
59734;SDS011;64362;45.620;4.920;2023-10-08T01:40:46;3.47;;;1.55;;
59734;SDS011;64362;45.620;4.920;2023-10-08T01:43:16;4.10;;;1.63;;
59734;SDS011;64362;45.620;4.920;2023-10-08T01:45:43;2.35;;;1.17;;
59734;SDS011;64362;45.620;4.920;2023-10-08T01:48:13;3.08;;;1.40;;
59734;SDS011;64362;45.620;4.920;2023-10-08T01:50:39;3.90;;;1.83;;
59734;SDS011;64362;45.620;4.920;2023-10-08T01:53:05;3.08;;;1.50;;
59734;SDS011;64362;45.620;4.920;2023-10-08T01:55:36;4.22;;;1.58;;
59734;SDS011;64362;45.620;4.920;2023-10-08T01:58:13;5.20;;;1.65;;
59734;SDS011;64362;45.620;4.920;2023-10-08T02:00:43;2.78;;;1.50;;
59734;SDS011;64362;45.620;4.920;2023-10-08T02:03:14;3.80;;;1.85;;
59734;SDS011;64362;45.620;4.920;2023-10-08T02:05:47;2.87;;;1.37;;
59734;SDS011;64362;45.620;4.920;2023-10-08T02:08:13;3.10;;;1.42;;
59734;SDS011;64362;45.620;4.920;2023-10-08T02:10:40;2.97;;;1.50;;
59734;SDS011;64362;45.620;4.920;2023-10-08T02:13:08;3.13;;;1.58;;
59734;SDS011;64362;45.620;4.920;2023-10-08T02:15:35;3.63;;;1.60;;
59734;SDS011;64362;45.620;4.920;2023-10-08T02:18:02;3.50;;;1.60;;
59734;SDS011;64362;45.620;4.920;2023-10-08T02:20:28;3.90;;;1.48;;
59734;SDS011;64362;45.620;4.920;2023-10-08T02:22:54;3.47;;;1.73;;
59734;SDS011;64362;45.620;4.920;2023-10-08T02:25:20;3.72;;;1.65;;
59734;SDS011;64362;45.620;4.920;2023-10-08T02:27:45;3.65;;;1.63;;
59734;SDS011;64362;45.620;4.920;2023-10-08T02:30:12;3.28;;;1.65;;
59734;SDS011;64362;45.620;4.920;2023-10-08T02:32:38;3.63;;;1.67;;
59734;SDS011;64362;45.620;4.920;2023-10-08T02:35:08;3.60;;;1.67;;
59734;SDS011;64362;45.620;4.920;2023-10-08T02:37:39;3.55;;;1.60;;
59734;SDS011;64362;45.620;4.920;2023-10-08T02:40:08;3.97;;;1.55;;
59734;SDS011;64362;45.620;4.920;2023-10-08T02:42:53;3.20;;;1.30;;
59734;SDS011;64362;45.620;4.920;2023-10-08T02:45:26;3.17;;;1.52;;
59734;SDS011;64362;45.620;4.920;2023-10-08T02:47:56;2.75;;;1.20;;
59734;SDS011;64362;45.620;4.920;2023-10-08T02:50:22;4.10;;;1.63;;
59734;SDS011;64362;45.620;4.920;2023-10-08T02:52:51;3.97;;;1.33;;
59734;SDS011;64362;45.620;4.920;2023-10-08T02:55:17;2.83;;;1.30;;
59734;SDS011;64362;45.620;4.920;2023-10-08T02:57:53;3.45;;;1.90;;
59734;SDS011;64362;45.620;4.920;2023-10-08T03:00:21;2.70;;;1.30;;
59734;SDS011;64362;45.620;4.920;2023-10-08T03:02:48;3.83;;;1.38;;
59734;SDS011;64362;45.620;4.920;2023-10-08T03:05:14;3.33;;;1.52;;
59734;SDS011;64362;45.620;4.920;2023-10-08T03:07:42;2.42;;;1.20;;
59734;SDS011;64362;45.620;4.920;2023-10-08T03:10:08;3.20;;;1.48;;
59734;SDS011;64362;45.620;4.920;2023-10-08T03:12:44;3.42;;;1.48;;
59734;SDS011;64362;45.620;4.920;2023-10-08T03:15:12;3.72;;;1.60;;
59734;SDS011;64362;45.620;4.920;2023-10-08T03:17:39;3.45;;;1.45;;
59734;SDS011;64362;45.620;4.920;2023-10-08T03:20:23;3.93;;;1.60;;
59734;SDS011;64362;45.620;4.920;2023-10-08T03:23:06;3.25;;;1.30;;
59734;SDS011;64362;45.620;4.920;2023-10-08T03:25:38;3.60;;;1.70;;
59734;SDS011;64362;45.620;4.920;2023-10-08T03:28:07;2.85;;;1.33;;
59734;SDS011;64362;45.620;4.920;2023-10-08T03:30:34;2.97;;;1.40;;
59734;SDS011;64362;45.620;4.920;2023-10-08T03:33:16;3.38;;;1.52;;
59734;SDS011;64362;45.620;4.920;2023-10-08T03:35:48;4.43;;;1.52;;
59734;SDS011;64362;45.620;4.920;2023-10-08T03:38:18;3.05;;;1.75;;
59734;SDS011;64362;45.620;4.920;2023-10-08T03:40:56;3.17;;;1.60;;
59734;SDS011;64362;45.620;4.920;2023-10-08T03:43:34;3.45;;;1.33;;
59734;SDS011;64362;45.620;4.920;2023-10-08T03:46:09;3.97;;;1.60;;
59734;SDS011;64362;45.620;4.920;2023-10-08T03:48:41;3.30;;;1.80;;
59734;SDS011;64362;45.620;4.920;2023-10-08T03:51:09;2.63;;;1.60;;
59734;SDS011;64362;45.620;4.920;2023-10-08T03:53:40;3.13;;;1.63;;
59734;SDS011;64362;45.620;4.920;2023-10-08T03:56:24;2.70;;;1.25;;
59734;SDS011;64362;45.620;4.920;2023-10-08T03:58:51;2.63;;;1.42;;
59734;SDS011;64362;45.620;4.920;2023-10-08T04:01:20;3.53;;;1.70;;
59734;SDS011;64362;45.620;4.920;2023-10-08T04:03:46;3.58;;;1.42;;
59734;SDS011;64362;45.620;4.920;2023-10-08T04:06:21;2.97;;;1.30;;
59734;SDS011;64362;45.620;4.920;2023-10-08T04:08:57;4.40;;;1.52;;
59734;SDS011;64362;45.620;4.920;2023-10-08T04:11:35;3.40;;;1.65;;
59734;SDS011;64362;45.620;4.920;2023-10-08T04:14:04;2.97;;;1.40;;
59734;SDS011;64362;45.620;4.920;2023-10-08T04:16:31;3.45;;;1.30;;
59734;SDS011;64362;45.620;4.920;2023-10-08T04:19:02;2.45;;;1.15;;
59734;SDS011;64362;45.620;4.920;2023-10-08T04:21:28;2.60;;;1.58;;
59734;SDS011;64362;45.620;4.920;2023-10-08T04:23:54;3.45;;;1.50;;
59734;SDS011;64362;45.620;4.920;2023-10-08T04:26:22;3.33;;;1.50;;
59734;SDS011;64362;45.620;4.920;2023-10-08T04:28:54;2.92;;;1.17;;
59734;SDS011;64362;45.620;4.920;2023-10-08T04:31:23;2.65;;;1.40;;
59734;SDS011;64362;45.620;4.920;2023-10-08T04:34:02;3.00;;;1.60;;
59734;SDS011;64362;45.620;4.920;2023-10-08T04:36:33;3.08;;;1.77;;
59734;SDS011;64362;45.620;4.920;2023-10-08T04:38:58;3.03;;;1.42;;
59734;SDS011;64362;45.620;4.920;2023-10-08T04:41:30;3.13;;;1.65;;
59734;SDS011;64362;45.620;4.920;2023-10-08T04:43:56;3.50;;;1.60;;
59734;SDS011;64362;45.620;4.920;2023-10-08T04:46:21;2.75;;;1.45;;
59734;SDS011;64362;45.620;4.920;2023-10-08T04:49:05;3.30;;;1.38;;
59734;SDS011;64362;45.620;4.920;2023-10-08T04:51:34;3.60;;;1.50;;
59734;SDS011;64362;45.620;4.920;2023-10-08T04:54:05;3.30;;;1.67;;
59734;SDS011;64362;45.620;4.920;2023-10-08T04:56:30;3.13;;;1.38;;
59734;SDS011;64362;45.620;4.920;2023-10-08T04:58:58;3.03;;;1.50;;
59734;SDS011;64362;45.620;4.920;2023-10-08T05:01:23;3.63;;;1.52;;
59734;SDS011;64362;45.620;4.920;2023-10-08T05:03:54;3.25;;;1.75;;
59734;SDS011;64362;45.620;4.920;2023-10-08T05:06:20;2.20;;;1.23;;
59734;SDS011;64362;45.620;4.920;2023-10-08T05:09:12;2.95;;;1.35;;
59734;SDS011;64362;45.620;4.920;2023-10-08T05:11:44;2.60;;;1.25;;
59734;SDS011;64362;45.620;4.920;2023-10-08T05:14:15;3.38;;;1.20;;
59734;SDS011;64362;45.620;4.920;2023-10-08T05:17:07;3.40;;;1.80;;
59734;SDS011;64362;45.620;4.920;2023-10-08T05:19:37;3.10;;;1.40;;
59734;SDS011;64362;45.620;4.920;2023-10-08T05:22:07;3.95;;;1.70;;
59734;SDS011;64362;45.620;4.920;2023-10-08T05:24:52;2.72;;;1.40;;
59734;SDS011;64362;45.620;4.920;2023-10-08T05:27:38;3.10;;;1.38;;
59734;SDS011;64362;45.620;4.920;2023-10-08T05:30:13;3.13;;;1.45;;
59734;SDS011;64362;45.620;4.920;2023-10-08T05:33:03;3.00;;;1.42;;
59734;SDS011;64362;45.620;4.920;2023-10-08T05:35:49;2.75;;;1.50;;
59734;SDS011;64362;45.620;4.920;2023-10-08T05:38:16;2.50;;;1.25;;
59734;SDS011;64362;45.620;4.920;2023-10-08T05:40:49;2.45;;;1.33;;
59734;SDS011;64362;45.620;4.920;2023-10-08T05:43:21;2.80;;;1.27;;
59734;SDS011;64362;45.620;4.920;2023-10-08T05:46:11;2.80;;;1.42;;
59734;SDS011;64362;45.620;4.920;2023-10-08T05:49:03;3.90;;;1.60;;
59734;SDS011;64362;45.620;4.920;2023-10-08T05:51:32;3.10;;;1.17;;
59734;SDS011;64362;45.620;4.920;2023-10-08T05:54:23;2.97;;;1.20;;
59734;SDS011;64362;45.620;4.920;2023-10-08T05:57:02;3.08;;;1.20;;
59734;SDS011;64362;45.620;4.920;2023-10-08T05:59:31;3.38;;;1.27;;
59734;SDS011;64362;45.620;4.920;2023-10-08T06:02:17;3.58;;;1.38;;
59734;SDS011;64362;45.620;4.920;2023-10-08T06:04:52;3.47;;;1.60;;
59734;SDS011;64362;45.620;4.920;2023-10-08T06:07:45;3.97;;;1.45;;
59734;SDS011;64362;45.620;4.920;2023-10-08T06:10:16;3.20;;;1.50;;
59734;SDS011;64362;45.620;4.920;2023-10-08T06:12:53;1.98;;;1.15;;
59734;SDS011;64362;45.620;4.920;2023-10-08T06:15:27;2.67;;;1.38;;
59734;SDS011;64362;45.620;4.920;2023-10-08T06:18:09;3.80;;;1.67;;
59734;SDS011;64362;45.620;4.920;2023-10-08T06:20:36;2.63;;;1.23;;
59734;SDS011;64362;45.620;4.920;2023-10-08T06:23:02;3.58;;;1.70;;
59734;SDS011;64362;45.620;4.920;2023-10-08T06:25:32;2.85;;;1.33;;
59734;SDS011;64362;45.620;4.920;2023-10-08T06:27:58;2.70;;;1.27;;
59734;SDS011;64362;45.620;4.920;2023-10-08T06:30:24;3.80;;;1.27;;
59734;SDS011;64362;45.620;4.920;2023-10-08T06:32:54;3.00;;;1.40;;
59734;SDS011;64362;45.620;4.920;2023-10-08T06:35:21;3.67;;;1.38;;
59734;SDS011;64362;45.620;4.920;2023-10-08T06:37:50;2.28;;;1.08;;
59734;SDS011;64362;45.620;4.920;2023-10-08T06:40:20;2.38;;;1.15;;
59734;SDS011;64362;45.620;4.920;2023-10-08T06:43:18;2.92;;;1.40;;
59734;SDS011;64362;45.620;4.920;2023-10-08T06:45:47;3.05;;;1.40;;
59734;SDS011;64362;45.620;4.920;2023-10-08T06:48:17;3.13;;;1.42;;
59734;SDS011;64362;45.620;4.920;2023-10-08T06:50:44;2.88;;;1.30;;
59734;SDS011;64362;45.620;4.920;2023-10-08T06:53:10;3.47;;;1.58;;
59734;SDS011;64362;45.620;4.920;2023-10-08T06:55:39;3.35;;;1.50;;
59734;SDS011;64362;45.620;4.920;2023-10-08T06:58:07;3.60;;;1.38;;
59734;SDS011;64362;45.620;4.920;2023-10-08T07:00:37;3.13;;;1.42;;
59734;SDS011;64362;45.620;4.920;2023-10-08T07:03:12;3.10;;;1.70;;
59734;SDS011;64362;45.620;4.920;2023-10-08T07:05:46;2.50;;;1.40;;
59734;SDS011;64362;45.620;4.920;2023-10-08T07:08:23;2.45;;;1.30;;
59734;SDS011;64362;45.620;4.920;2023-10-08T07:10:53;2.72;;;1.10;;
59734;SDS011;64362;45.620;4.920;2023-10-08T07:13:19;2.92;;;1.40;;
59734;SDS011;64362;45.620;4.920;2023-10-08T07:15:48;2.97;;;1.30;;
59734;SDS011;64362;45.620;4.920;2023-10-08T07:18:14;2.13;;;1.10;;
59734;SDS011;64362;45.620;4.920;2023-10-08T07:20:45;2.42;;;1.25;;
59734;SDS011;64362;45.620;4.920;2023-10-08T07:23:11;2.55;;;1.23;;
59734;SDS011;64362;45.620;4.920;2023-10-08T07:25:56;2.88;;;1.30;;
59734;SDS011;64362;45.620;4.920;2023-10-08T07:28:39;2.85;;;1.30;;
59734;SDS011;64362;45.620;4.920;2023-10-08T07:31:15;3.45;;;1.30;;
59734;SDS011;64362;45.620;4.920;2023-10-08T07:33:46;3.92;;;1.67;;
59734;SDS011;64362;45.620;4.920;2023-10-08T07:36:22;3.58;;;1.58;;
59734;SDS011;64362;45.620;4.920;2023-10-08T07:38:48;3.92;;;1.52;;
59734;SDS011;64362;45.620;4.920;2023-10-08T07:41:14;3.05;;;1.30;;
59734;SDS011;64362;45.620;4.920;2023-10-08T07:43:40;2.85;;;1.30;;
59734;SDS011;64362;45.620;4.920;2023-10-08T07:46:07;2.92;;;1.60;;
59734;SDS011;64362;45.620;4.920;2023-10-08T07:48:33;2.67;;;1.35;;
59734;SDS011;64362;45.620;4.920;2023-10-08T07:50:58;3.55;;;1.58;;
59734;SDS011;64362;45.620;4.920;2023-10-08T07:53:24;3.03;;;1.50;;
59734;SDS011;64362;45.620;4.920;2023-10-08T07:55:50;3.30;;;1.55;;
59734;SDS011;64362;45.620;4.920;2023-10-08T07:58:16;3.40;;;1.35;;
59734;SDS011;64362;45.620;4.920;2023-10-08T08:00:43;2.97;;;1.40;;
59734;SDS011;64362;45.620;4.920;2023-10-08T08:03:19;2.97;;;1.48;;
59734;SDS011;64362;45.620;4.920;2023-10-08T08:05:45;3.35;;;1.20;;
59734;SDS011;64362;45.620;4.920;2023-10-08T08:08:12;2.63;;;1.20;;
59734;SDS011;64362;45.620;4.920;2023-10-08T08:10:43;2.90;;;1.30;;
59734;SDS011;64362;45.620;4.920;2023-10-08T08:13:09;2.78;;;1.25;;
59734;SDS011;64362;45.620;4.920;2023-10-08T08:15:35;2.95;;;1.50;;
59734;SDS011;64362;45.620;4.920;2023-10-08T08:18:06;3.38;;;1.70;;
59734;SDS011;64362;45.620;4.920;2023-10-08T08:20:34;3.72;;;1.40;;
59734;SDS011;64362;45.620;4.920;2023-10-08T08:23:04;3.97;;;1.55;;
59734;SDS011;64362;45.620;4.920;2023-10-08T08:25:40;3.13;;;1.55;;
59734;SDS011;64362;45.620;4.920;2023-10-08T08:28:32;3.25;;;1.55;;
59734;SDS011;64362;45.620;4.920;2023-10-08T08:31:02;3.35;;;1.80;;
59734;SDS011;64362;45.620;4.920;2023-10-08T08:33:30;2.65;;;1.45;;
59734;SDS011;64362;45.620;4.920;2023-10-08T08:36:16;4.00;;;1.73;;
59734;SDS011;64362;45.620;4.920;2023-10-08T08:38:41;3.03;;;1.30;;
59734;SDS011;64362;45.620;4.920;2023-10-08T08:41:08;3.22;;;1.50;;
59734;SDS011;64362;45.620;4.920;2023-10-08T08:43:37;2.97;;;1.40;;
59734;SDS011;64362;45.620;4.920;2023-10-08T08:46:08;2.97;;;1.20;;
59734;SDS011;64362;45.620;4.920;2023-10-08T08:48:38;2.97;;;1.42;;
59734;SDS011;64362;45.620;4.920;2023-10-08T08:51:05;4.07;;;1.77;;
59734;SDS011;64362;45.620;4.920;2023-10-08T08:53:35;2.90;;;1.40;;
59734;SDS011;64362;45.620;4.920;2023-10-08T08:56:01;2.92;;;1.40;;
59734;SDS011;64362;45.620;4.920;2023-10-08T08:58:33;3.08;;;1.35;;
59734;SDS011;64362;45.620;4.920;2023-10-08T09:01:02;3.95;;;1.70;;
59734;SDS011;64362;45.620;4.920;2023-10-08T09:03:29;3.05;;;1.45;;
59734;SDS011;64362;45.620;4.920;2023-10-08T09:05:58;4.00;;;1.70;;
59734;SDS011;64362;45.620;4.920;2023-10-08T09:08:27;4.18;;;1.73;;
59734;SDS011;64362;45.620;4.920;2023-10-08T09:10:59;3.55;;;1.70;;
59734;SDS011;64362;45.620;4.920;2023-10-08T09:13:30;3.05;;;1.40;;
59734;SDS011;64362;45.620;4.920;2023-10-08T09:16:07;4.63;;;1.83;;
59734;SDS011;64362;45.620;4.920;2023-10-08T09:18:33;3.70;;;1.48;;
59734;SDS011;64362;45.620;4.920;2023-10-08T09:21:14;2.90;;;1.60;;
59734;SDS011;64362;45.620;4.920;2023-10-08T09:23:44;3.03;;;1.50;;
59734;SDS011;64362;45.620;4.920;2023-10-08T09:26:12;3.67;;;1.55;;
59734;SDS011;64362;45.620;4.920;2023-10-08T09:28:48;3.88;;;1.58;;
59734;SDS011;64362;45.620;4.920;2023-10-08T09:31:15;2.70;;;1.30;;
59734;SDS011;64362;45.620;4.920;2023-10-08T09:33:43;3.53;;;1.40;;
59734;SDS011;64362;45.620;4.920;2023-10-08T09:36:09;3.20;;;1.48;;
59734;SDS011;64362;45.620;4.920;2023-10-08T09:38:43;2.88;;;1.42;;
59734;SDS011;64362;45.620;4.920;2023-10-08T09:41:10;3.55;;;1.58;;
59734;SDS011;64362;45.620;4.920;2023-10-08T09:43:36;3.60;;;1.77;;
59734;SDS011;64362;45.620;4.920;2023-10-08T09:46:37;4.03;;;1.75;;
59734;SDS011;64362;45.620;4.920;2023-10-08T09:49:00;3.05;;;1.50;;
59734;SDS011;64362;45.620;4.920;2023-10-08T09:51:28;3.33;;;1.55;;
59734;SDS011;64362;45.620;4.920;2023-10-08T09:56:35;2.95;;;1.60;;
59734;SDS011;64362;45.620;4.920;2023-10-08T09:59:01;3.35;;;1.92;;
59734;SDS011;64362;45.620;4.920;2023-10-08T10:01:27;3.50;;;1.60;;
59734;SDS011;64362;45.620;4.920;2023-10-08T10:03:53;3.25;;;1.70;;
59734;SDS011;64362;45.620;4.920;2023-10-08T10:06:18;3.15;;;1.52;;
59734;SDS011;64362;45.620;4.920;2023-10-08T10:08:44;4.05;;;1.50;;
59734;SDS011;64362;45.620;4.920;2023-10-08T10:11:10;4.25;;;1.70;;
59734;SDS011;64362;45.620;4.920;2023-10-08T10:13:41;3.30;;;1.30;;
59734;SDS011;64362;45.620;4.920;2023-10-08T10:16:10;3.17;;;1.60;;
59734;SDS011;64362;45.620;4.920;2023-10-08T10:18:36;3.25;;;1.55;;
59734;SDS011;64362;45.620;4.920;2023-10-08T10:31:42;3.53;;;1.55;;
59734;SDS011;64362;45.620;4.920;2023-10-08T10:34:15;3.83;;;1.65;;
59734;SDS011;64362;45.620;4.920;2023-10-08T10:36:42;2.95;;;1.20;;
59734;SDS011;64362;45.620;4.920;2023-10-08T10:39:09;4.18;;;1.60;;
59734;SDS011;64362;45.620;4.920;2023-10-08T10:41:48;3.83;;;1.50;;
59734;SDS011;64362;45.620;4.920;2023-10-08T10:44:16;4.38;;;1.75;;
59734;SDS011;64362;45.620;4.920;2023-10-08T10:46:43;3.58;;;1.40;;
59734;SDS011;64362;45.620;4.920;2023-10-08T10:49:16;2.47;;;1.30;;
59734;SDS011;64362;45.620;4.920;2023-10-08T10:51:55;3.17;;;1.60;;
59734;SDS011;64362;45.620;4.920;2023-10-08T10:54:24;3.35;;;1.80;;
59734;SDS011;64362;45.620;4.920;2023-10-08T10:56:50;3.20;;;1.85;;
59734;SDS011;64362;45.620;4.920;2023-10-08T10:59:32;3.45;;;1.60;;
59734;SDS011;64362;45.620;4.920;2023-10-08T11:02:04;3.00;;;1.67;;
59734;SDS011;64362;45.620;4.920;2023-10-08T11:04:56;2.92;;;1.40;;
59734;SDS011;64362;45.620;4.920;2023-10-08T11:07:32;2.78;;;1.35;;
59734;SDS011;64362;45.620;4.920;2023-10-08T11:09:59;2.92;;;1.42;;
59734;SDS011;64362;45.620;4.920;2023-10-08T11:12:24;2.75;;;1.50;;
59734;SDS011;64362;45.620;4.920;2023-10-08T11:15:08;3.88;;;1.73;;
59734;SDS011;64362;45.620;4.920;2023-10-08T11:17:40;4.53;;;1.60;;
59734;SDS011;64362;45.620;4.920;2023-10-08T11:20:22;3.15;;;1.52;;
59734;SDS011;64362;45.620;4.920;2023-10-08T11:22:49;3.80;;;1.50;;
59734;SDS011;64362;45.620;4.920;2023-10-08T11:25:22;3.47;;;1.88;;
59734;SDS011;64362;45.620;4.920;2023-10-08T11:27:52;3.95;;;1.52;;
59734;SDS011;64362;45.620;4.920;2023-10-08T11:30:26;2.97;;;1.42;;
59734;SDS011;64362;45.620;4.920;2023-10-08T11:32:59;2.85;;;1.33;;
59734;SDS011;64362;45.620;4.920;2023-10-08T11:35:25;2.85;;;1.30;;
59734;SDS011;64362;45.620;4.920;2023-10-08T11:37:57;3.92;;;1.75;;
59734;SDS011;64362;45.620;4.920;2023-10-08T11:40:26;3.22;;;1.38;;
59734;SDS011;64362;45.620;4.920;2023-10-08T11:43:13;3.78;;;1.55;;
59734;SDS011;64362;45.620;4.920;2023-10-08T11:45:41;3.88;;;1.77;;
59734;SDS011;64362;45.620;4.920;2023-10-08T11:48:13;3.13;;;1.50;;
59734;SDS011;64362;45.620;4.920;2023-10-08T11:50:42;2.97;;;1.40;;
59734;SDS011;64362;45.620;4.920;2023-10-08T11:53:08;4.30;;;1.60;;
59734;SDS011;64362;45.620;4.920;2023-10-08T11:55:36;3.60;;;1.55;;
59734;SDS011;64362;45.620;4.920;2023-10-08T11:58:06;3.42;;;1.65;;
59734;SDS011;64362;45.620;4.920;2023-10-08T12:00:38;3.25;;;1.42;;
59734;SDS011;64362;45.620;4.920;2023-10-08T12:03:13;4.15;;;1.63;;
59734;SDS011;64362;45.620;4.920;2023-10-08T12:05:46;3.28;;;1.40;;
59734;SDS011;64362;45.620;4.920;2023-10-08T12:08:17;3.97;;;1.70;;
59734;SDS011;64362;45.620;4.920;2023-10-08T12:10:43;3.78;;;1.60;;
59734;SDS011;64362;45.620;4.920;2023-10-08T12:13:11;3.92;;;1.83;;
59734;SDS011;64362;45.620;4.920;2023-10-08T12:15:36;4.43;;;1.98;;
59734;SDS011;64362;45.620;4.920;2023-10-08T12:18:06;4.50;;;1.88;;
59734;SDS011;64362;45.620;4.920;2023-10-08T12:20:49;3.67;;;1.45;;
59734;SDS011;64362;45.620;4.920;2023-10-08T12:23:15;3.33;;;1.80;;
59734;SDS011;64362;45.620;4.920;2023-10-08T12:25:55;4.20;;;1.92;;
59734;SDS011;64362;45.620;4.920;2023-10-08T12:28:21;5.18;;;1.98;;
59734;SDS011;64362;45.620;4.920;2023-10-08T12:30:49;5.22;;;2.20;;
59734;SDS011;64362;45.620;4.920;2023-10-08T12:33:20;4.80;;;2.33;;
59734;SDS011;64362;45.620;4.920;2023-10-08T12:35:49;4.35;;;1.90;;
59734;SDS011;64362;45.620;4.920;2023-10-08T12:38:15;5.32;;;1.90;;
59734;SDS011;64362;45.620;4.920;2023-10-08T12:40:40;3.83;;;1.60;;
59734;SDS011;64362;45.620;4.920;2023-10-08T12:43:22;3.60;;;1.80;;
59734;SDS011;64362;45.620;4.920;2023-10-08T12:45:48;5.97;;;1.58;;
59734;SDS011;64362;45.620;4.920;2023-10-08T12:48:21;4.05;;;1.70;;
59734;SDS011;64362;45.620;4.920;2023-10-08T12:50:51;4.72;;;2.20;;
59734;SDS011;64362;45.620;4.920;2023-10-08T12:53:22;4.65;;;1.80;;
59734;SDS011;64362;45.620;4.920;2023-10-08T12:56:04;4.68;;;2.00;;
59734;SDS011;64362;45.620;4.920;2023-10-08T12:58:40;3.30;;;1.67;;
59734;SDS011;64362;45.620;4.920;2023-10-08T13:01:10;4.82;;;1.70;;
59734;SDS011;64362;45.620;4.920;2023-10-08T13:03:36;3.58;;;1.75;;
59734;SDS011;64362;45.620;4.920;2023-10-08T13:06:09;4.18;;;2.10;;
59734;SDS011;64362;45.620;4.920;2023-10-08T13:08:47;4.28;;;2.30;;
59734;SDS011;64362;45.620;4.920;2023-10-08T13:11:14;4.63;;;1.80;;
59734;SDS011;64362;45.620;4.920;2023-10-08T13:13:40;4.07;;;2.17;;
59734;SDS011;64362;45.620;4.920;2023-10-08T13:16:06;4.72;;;2.13;;
59734;SDS011;64362;45.620;4.920;2023-10-08T13:18:33;4.20;;;1.90;;
59734;SDS011;64362;45.620;4.920;2023-10-08T13:20:59;4.18;;;2.00;;
59734;SDS011;64362;45.620;4.920;2023-10-08T13:23:26;3.75;;;1.90;;
59734;SDS011;64362;45.620;4.920;2023-10-08T13:25:51;4.15;;;2.22;;
59734;SDS011;64362;45.620;4.920;2023-10-08T13:28:22;4.57;;;2.10;;
59734;SDS011;64362;45.620;4.920;2023-10-08T13:30:51;3.80;;;2.10;;
59734;SDS011;64362;45.620;4.920;2023-10-08T13:33:20;4.20;;;1.90;;
59734;SDS011;64362;45.620;4.920;2023-10-08T13:35:47;3.78;;;1.90;;
59734;SDS011;64362;45.620;4.920;2023-10-08T13:38:18;6.40;;;2.13;;
59734;SDS011;64362;45.620;4.920;2023-10-08T13:40:46;4.50;;;1.90;;
59734;SDS011;64362;45.620;4.920;2023-10-08T13:43:33;4.30;;;1.92;;
59734;SDS011;64362;45.620;4.920;2023-10-08T13:46:08;4.90;;;2.05;;
59734;SDS011;64362;45.620;4.920;2023-10-08T13:48:38;3.75;;;1.85;;
59734;SDS011;64362;45.620;4.920;2023-10-08T13:51:06;4.10;;;2.05;;
59734;SDS011;64362;45.620;4.920;2023-10-08T13:53:38;3.53;;;2.13;;
59734;SDS011;64362;45.620;4.920;2023-10-08T13:56:05;5.22;;;2.25;;
59734;SDS011;64362;45.620;4.920;2023-10-08T13:58:31;4.63;;;2.22;;
59734;SDS011;64362;45.620;4.920;2023-10-08T14:00:59;5.25;;;1.80;;
59734;SDS011;64362;45.620;4.920;2023-10-08T14:03:29;5.43;;;2.45;;
59734;SDS011;64362;45.620;4.920;2023-10-08T14:05:59;4.38;;;1.92;;
59734;SDS011;64362;45.620;4.920;2023-10-08T14:08:29;4.38;;;1.90;;
59734;SDS011;64362;45.620;4.920;2023-10-08T14:10:56;4.70;;;1.92;;
59734;SDS011;64362;45.620;4.920;2023-10-08T14:13:31;5.68;;;2.10;;
59734;SDS011;64362;45.620;4.920;2023-10-08T14:15:58;5.07;;;1.92;;
59734;SDS011;64362;45.620;4.920;2023-10-08T14:18:24;3.72;;;2.10;;
59734;SDS011;64362;45.620;4.920;2023-10-08T14:20:54;6.18;;;2.60;;
59734;SDS011;64362;45.620;4.920;2023-10-08T14:23:21;4.15;;;2.10;;
59734;SDS011;64362;45.620;4.920;2023-10-08T14:25:49;5.65;;;2.00;;
59734;SDS011;64362;45.620;4.920;2023-10-08T14:28:17;3.95;;;2.30;;
59734;SDS011;64362;45.620;4.920;2023-10-08T14:31:05;4.05;;;2.08;;
59734;SDS011;64362;45.620;4.920;2023-10-08T14:33:32;4.38;;;1.95;;
59734;SDS011;64362;45.620;4.920;2023-10-08T14:36:07;3.97;;;2.27;;
59734;SDS011;64362;45.620;4.920;2023-10-08T14:38:54;4.60;;;1.83;;
59734;SDS011;64362;45.620;4.920;2023-10-08T14:41:38;5.03;;;2.40;;
59734;SDS011;64362;45.620;4.920;2023-10-08T14:44:22;4.88;;;2.05;;
59734;SDS011;64362;45.620;4.920;2023-10-08T14:46:48;5.60;;;2.08;;
59734;SDS011;64362;45.620;4.920;2023-10-08T14:49:15;4.40;;;2.08;;
59734;SDS011;64362;45.620;4.920;2023-10-08T14:51:41;6.00;;;2.22;;
59734;SDS011;64362;45.620;4.920;2023-10-08T14:54:07;4.25;;;2.20;;
59734;SDS011;64362;45.620;4.920;2023-10-08T14:56:35;4.40;;;2.20;;
59734;SDS011;64362;45.620;4.920;2023-10-08T14:59:02;5.82;;;2.45;;
59734;SDS011;64362;45.620;4.920;2023-10-08T15:01:28;5.65;;;2.25;;
59734;SDS011;64362;45.620;4.920;2023-10-08T15:03:54;5.55;;;2.22;;
59734;SDS011;64362;45.620;4.920;2023-10-08T15:06:19;5.47;;;2.30;;
59734;SDS011;64362;45.620;4.920;2023-10-08T15:08:46;4.65;;;1.83;;
59734;SDS011;64362;45.620;4.920;2023-10-08T15:11:11;6.60;;;2.80;;
59734;SDS011;64362;45.620;4.920;2023-10-08T15:13:37;5.20;;;1.90;;
59734;SDS011;64362;45.620;4.920;2023-10-08T15:16:04;6.57;;;2.80;;
59734;SDS011;64362;45.620;4.920;2023-10-08T15:18:30;5.20;;;2.20;;
59734;SDS011;64362;45.620;4.920;2023-10-08T15:20:57;5.85;;;2.10;;
59734;SDS011;64362;45.620;4.920;2023-10-08T15:23:23;4.95;;;2.05;;
59734;SDS011;64362;45.620;4.920;2023-10-08T15:25:52;4.30;;;2.10;;
59734;SDS011;64362;45.620;4.920;2023-10-08T15:28:18;7.38;;;2.38;;